Time;durP1;ratioP1;P1;durP2;ratioP2;P2;SDS_P1;SDS_P2;PMS_P1;PMS_P2;Temp;Humidity;BMP_temperature;BMP_pressure;BME280_temperature;BME280_humidity;BME280_pressure;Samples;Min_cycle;Max_cycle;Signal;HPM_P1;HPM_P2
2023/09/23 00:01:28;;;;;;;;;;;12.00;99.90;;;;;;5125329;28;20089;-76
2023/09/23 00:03:54;;;;;;;;;;;12.00;99.90;;;;;;5124999;28;19910;-77
2023/09/23 00:06:22;;;;;;;;;;;12.00;99.90;;;;;;5120205;28;20194;-76
2023/09/23 00:08:48;;;;;;;;;;;12.10;99.90;;;;;;5109731;28;20190;-77
2023/09/23 00:11:14;;;;;;;;;;;12.10;99.90;;;;;;5125241;28;19915;-77
2023/09/23 00:13:40;;;;;;;;;;;12.20;99.90;;;;;;5120650;28;19904;-77
2023/09/23 00:16:07;;;;;;;;;;;12.10;99.90;;;;;;5113447;28;19903;-75
2023/09/23 00:18:33;;;;;;;;;;;12.10;99.90;;;;;;5123579;28;19907;-76
2023/09/23 00:20:59;;;;;;;;;;;12.10;99.90;;;;;;5115470;28;19912;-76
2023/09/23 00:23:24;;;;;;;;;;;12.10;99.90;;;;;;5104238;28;19911;-76
2023/09/23 00:25:51;;;;;;;;;;;12.00;99.90;;;;;;5117851;28;19907;-77
2023/09/23 00:28:16;;;;;;;;;;;12.10;99.90;;;;;;5114545;28;20217;-76
2023/09/23 07:06:26;;;;;;;;;;;13.70;99.90;;;;;;6006095;23;19920;-76
2023/09/23 07:08:51;;;;;;;;;;;14.00;99.90;;;;;;4955048;29;20092;-76
2023/09/23 07:11:17;;;;;;;;;;;14.10;99.90;;;;;;4956561;29;20179;-77
2023/09/23 07:13:42;;;;;;;;;;;14.10;99.90;;;;;;4954804;29;19911;-77
2023/09/23 07:16:12;;;;;;;;;;;14.20;99.90;;;;;;4945882;29;19906;-76
2023/09/23 07:18:37;;;;;;;;;;;14.30;99.90;;;;;;4964804;29;19906;-77
2023/09/23 07:21:03;;;;;;;;;;;14.50;99.90;;;;;;4967876;29;19917;-78
2023/09/23 07:23:28;;;;;;;;;;;14.60;99.90;;;;;;4963127;28;19930;-78
2023/09/23 07:25:54;;;;;;;;;;;14.70;99.90;;;;;;4961040;29;20206;-79
2023/09/23 07:28:19;;;;;;;;;;;14.70;99.90;;;;;;4966220;29;19906;-76
2023/09/23 07:30:45;;;;;;;;;;;14.70;99.90;;;;;;4965970;29;19950;-79
2023/09/23 07:33:11;;;;;;;;;;;14.70;99.90;;;;;;4967142;29;19913;-77
2023/09/23 07:35:36;;;;;;;;;;;14.80;99.90;;;;;;4966737;29;19913;-76
2023/09/23 07:38:02;;;;;;;;;;;14.80;99.90;;;;;;4967104;29;19906;-77
2023/09/23 07:40:29;;;;;;;;;;;15.00;99.90;;;;;;4963950;29;19907;-75
2023/09/23 07:42:55;;;;;;;;;;;14.90;99.90;;;;;;4967071;29;19934;-77
2023/09/23 07:45:21;;;;;;;;;;;14.90;99.90;;;;;;4965544;29;20251;-78
2023/09/23 07:47:47;;;;;;;;;;;15.00;99.90;;;;;;4967056;28;19906;-79
2023/09/23 07:50:13;;;;;;;;;;;15.20;99.60;;;;;;4966459;28;19925;-78
2023/09/23 07:52:38;;;;;;;;;;;15.20;99.30;;;;;;4964782;29;20196;-79
2023/09/23 07:55:07;;;;;;;;;;;15.30;98.80;;;;;;4965618;29;19918;-78
2023/09/23 07:57:32;;;;;;;;;;;15.30;98.30;;;;;;4966230;28;19912;-79
2023/09/23 07:59:59;;;;;;;;;;;15.40;98.30;;;;;;4966340;29;19945;-80
2023/09/23 08:02:24;;;;;;;;;;;15.50;97.70;;;;;;4964519;29;19906;-79
2023/09/23 08:04:50;;;;;;;;;;;15.60;97.70;;;;;;4966187;29;19909;-78
2023/09/23 08:07:15;;;;;;;;;;;15.60;96.80;;;;;;4965362;28;19965;-77
2023/09/23 08:09:41;;;;;;;;;;;15.50;96.50;;;;;;4965189;29;19907;-78
2023/09/23 08:12:07;;;;;;;;;;;15.50;96.60;;;;;;4966587;28;19910;-78
2023/09/23 08:14:33;;;;;;;;;;;15.40;96.40;;;;;;4966517;28;20092;-78
2023/09/23 08:16:58;;;;;;;;;;;15.50;96.50;;;;;;4964103;29;19907;-78
2023/09/23 08:19:24;;;;;;;;;;;15.40;96.50;;;;;;4966185;29;19909;-76
2023/09/23 08:21:49;;;;;;;;;;;15.50;96.00;;;;;;4966764;29;19906;-77
2023/09/23 08:24:15;;;;;;;;;;;15.50;95.90;;;;;;4966549;29;19907;-78
2023/09/23 08:26:41;;;;;;;;;;;15.50;96.00;;;;;;4966073;29;20150;-78
2023/09/23 08:29:06;;;;;;;;;;;15.70;95.60;;;;;;4965671;29;19906;-78
2023/09/23 08:31:32;;;;;;;;;;;15.70;95.60;;;;;;4965880;29;19921;-77
2023/09/23 08:33:58;;;;;;;;;;;15.60;95.10;;;;;;4966568;29;20126;-78
2023/09/23 08:36:24;;;;;;;;;;;15.60;94.90;;;;;;4965696;29;19981;-78
2023/09/23 08:38:50;;;;;;;;;;;15.60;95.10;;;;;;4966249;29;20096;-79
2023/09/23 08:41:19;;;;;;;;;;;15.60;95.20;;;;;;4962904;29;19977;-77
2023/09/23 08:43:45;;;;;;;;;;;15.70;94.20;;;;;;4966187;29;19953;-78
2023/09/23 08:46:11;;;;;;;;;;;15.60;94.60;;;;;;4966404;29;19907;-77
2023/09/23 08:48:37;;;;;;;;;;;15.70;94.30;;;;;;4965418;29;20170;-79
2023/09/23 08:51:05;;;;;;;;;;;15.70;94.20;;;;;;4965599;29;19926;-76
2023/09/23 08:53:32;;;;;;;;;;;15.60;94.00;;;;;;4965206;28;20200;-78
2023/09/23 08:55:59;;;;;;;;;;;15.60;94.10;;;;;;4965756;29;20199;-77
2023/09/23 08:58:28;;;;;;;;;;;15.80;94.00;;;;;;4964561;29;19988;-78
2023/09/23 09:00:54;;;;;;;;;;;15.80;94.00;;;;;;4956815;28;19953;-77
2023/09/23 09:03:19;;;;;;;;;;;15.80;94.10;;;;;;4948357;29;19965;-79
2023/09/23 09:05:46;;;;;;;;;;;15.90;93.80;;;;;;4963827;29;19907;-77
2023/09/23 09:08:12;;;;;;;;;;;16.10;93.30;;;;;;4960270;28;20215;-77
2023/09/23 09:10:40;;;;;;;;;;;16.00;92.60;;;;;;4964365;28;19913;-77
2023/09/23 09:13:06;;;;;;;;;;;15.90;93.10;;;;;;4964913;29;20210;-77
2023/09/23 09:15:36;;;;;;;;;;;15.90;93.30;;;;;;4961108;29;19982;-76
2023/09/23 09:18:04;;;;;;;;;;;16.00;93.20;;;;;;4965557;29;19926;-75
2023/09/23 09:20:30;;;;;;;;;;;16.00;93.30;;;;;;4962978;28;19929;-77
2023/09/23 09:22:56;;;;;;;;;;;16.10;93.30;;;;;;4965434;29;20128;-77
2023/09/23 09:25:22;;;;;;;;;;;16.30;93.20;;;;;;4965158;29;19910;-78
2023/09/23 09:27:48;;;;;;;;;;;16.30;92.70;;;;;;4963966;29;19942;-77
2023/09/23 09:30:14;;;;;;;;;;;16.40;92.50;;;;;;4963869;29;19906;-78
2023/09/23 09:32:41;;;;;;;;;;;16.50;91.30;;;;;;4963314;29;19917;-77
2023/09/23 09:35:09;;;;;;;;;;;16.60;91.50;;;;;;4965041;28;19913;-78
2023/09/23 09:37:35;;;;;;;;;;;16.60;91.00;;;;;;4959956;29;20144;-77
2023/09/23 09:40:04;;;;;;;;;;;16.60;90.70;;;;;;4963339;29;19909;-79
2023/09/23 09:42:33;;;;;;;;;;;16.60;91.90;;;;;;4964945;28;19953;-77
2023/09/23 09:44:59;;;;;;;;;;;16.70;90.20;;;;;;4963779;29;19913;-77
2023/09/23 09:47:27;;;;;;;;;;;16.60;91.20;;;;;;4963385;29;19909;-77
2023/09/23 09:49:54;;;;;;;;;;;16.70;90.40;;;;;;4964459;29;19913;-79
2023/09/23 09:52:21;;;;;;;;;;;16.70;89.70;;;;;;4964510;29;19953;-77
2023/09/23 09:54:46;;;;;;;;;;;16.80;90.40;;;;;;4963979;29;19910;-76
2023/09/23 09:57:12;;;;;;;;;;;16.90;90.20;;;;;;4963963;29;19942;-76
2023/09/23 09:59:41;;;;;;;;;;;17.10;89.60;;;;;;4963727;28;19914;-76
2023/09/23 10:02:07;;;;;;;;;;;17.10;88.20;;;;;;4961915;29;19902;-78
2023/09/23 10:04:33;;;;;;;;;;;17.10;87.70;;;;;;4964085;29;20276;-77
2023/09/23 10:06:59;;;;;;;;;;;17.10;86.30;;;;;;4962845;28;19981;-77
2023/09/23 10:09:27;;;;;;;;;;;17.20;86.30;;;;;;4960013;28;19906;-76
2023/09/23 10:11:56;;;;;;;;;;;17.30;86.50;;;;;;4963808;28;20116;-77
2023/09/23 10:14:22;;;;;;;;;;;17.50;86.50;;;;;;4964232;29;20184;-76
2023/09/23 10:16:51;;;;;;;;;;;17.70;85.00;;;;;;4960146;29;19961;-77
2023/09/23 10:19:27;;;;;;;;;;;17.70;84.20;;;;;;4964026;29;19981;-77
2023/09/23 10:21:53;;;;;;;;;;;17.80;83.50;;;;;;4963976;29;19942;-78
2023/09/23 10:24:20;;;;;;;;;;;17.90;84.50;;;;;;4964414;28;19922;-78
2023/09/23 10:26:46;;;;;;;;;;;18.40;82.50;;;;;;4963726;29;19918;-78
2023/09/23 10:29:11;;;;;;;;;;;18.60;81.60;;;;;;4963013;29;19981;-77
2023/09/23 10:31:38;;;;;;;;;;;18.80;80.10;;;;;;4963213;28;19910;-76
2023/09/23 10:34:04;;;;;;;;;;;19.20;81.30;;;;;;4946794;29;19906;-77
2023/09/23 10:36:30;;;;;;;;;;;19.60;80.60;;;;;;4962582;29;19909;-76
2023/09/23 10:38:57;;;;;;;;;;;20.00;78.50;;;;;;4963929;29;19910;-77
2023/09/23 10:41:35;;;;;;;;;;;20.00;78.80;;;;;;4964313;29;19906;-76
2023/09/23 10:44:02;;;;;;;;;;;20.00;76.40;;;;;;4957467;29;19914;-77
2023/09/23 10:46:29;;;;;;;;;;;20.00;77.70;;;;;;4963475;29;19906;-77
2023/09/23 10:48:54;;;;;;;;;;;20.00;76.70;;;;;;4962411;29;19903;-76
2023/09/23 10:51:21;;;;;;;;;;;19.90;76.60;;;;;;4963360;28;20103;-74
2023/09/23 10:53:49;;;;;;;;;;;19.80;75.80;;;;;;4963244;29;19944;-79
2023/09/23 10:56:15;;;;;;;;;;;19.50;74.90;;;;;;4962844;28;19903;-77
2023/09/23 10:58:41;;;;;;;;;;;19.70;74.90;;;;;;4963137;28;19945;-76
2023/09/23 11:01:07;;;;;;;;;;;20.10;74.50;;;;;;4962611;29;19931;-77
2023/09/23 11:03:40;;;;;;;;;;;20.90;72.40;;;;;;4952300;29;20183;-74
2023/09/23 11:06:08;;;;;;;;;;;21.90;71.00;;;;;;4957596;28;19915;-77
2023/09/23 11:08:34;;;;;;;;;;;22.10;69.80;;;;;;4958999;29;19910;-78
2023/09/23 11:11:00;;;;;;;;;;;22.00;70.90;;;;;;4962127;29;19954;-76
2023/09/23 11:13:25;;;;;;;;;;;22.70;68.50;;;;;;4961239;28;20014;-76
2023/09/23 11:15:51;;;;;;;;;;;22.70;68.50;;;;;;4959952;29;19906;-77
2023/09/23 11:18:17;;;;;;;;;;;22.60;69.20;;;;;;4964820;29;19953;-78
2023/09/23 11:20:44;;;;;;;;;;;22.30;68.50;;;;;;4961536;29;19906;-76
2023/09/23 11:23:10;;;;;;;;;;;21.70;69.70;;;;;;4964161;28;19914;-77
2023/09/23 11:25:41;;;;;;;;;;;21.00;71.70;;;;;;4966305;29;19965;-78
2023/09/23 11:28:15;;;;;;;;;;;20.70;73.20;;;;;;4951410;29;19910;-75
2023/09/23 11:30:41;;;;;;;;;;;20.40;74.40;;;;;;4965471;29;19910;-75
2023/09/23 11:33:07;;;;;;;;;;;20.40;75.00;;;;;;4965319;29;19949;-75
2023/09/23 11:35:33;;;;;;;;;;;20.90;74.80;;;;;;4965301;29;20043;-77
2023/09/23 11:37:58;;;;;;;;;;;21.90;73.00;;;;;;4965323;29;19953;-77
2023/09/23 11:40:24;;;;;;;;;;;23.70;69.30;;;;;;4967276;29;20088;-78
2023/09/23 11:42:50;;;;;;;;;;;25.20;64.80;;;;;;4965504;29;19913;-78
2023/09/23 11:45:16;;;;;;;;;;;26.40;62.30;;;;;;4967119;29;20092;-77
2023/09/23 11:47:41;;;;;;;;;;;25.30;63.60;;;;;;4966990;28;19903;-77
2023/09/23 11:50:07;;;;;;;;;;;24.40;63.50;;;;;;4965212;29;19912;-76
2023/09/23 11:52:33;;;;;;;;;;;23.80;65.60;;;;;;4965695;28;19937;-76
2023/09/23 11:54:59;;;;;;;;;;;22.90;66.30;;;;;;4965658;29;20263;-74
2023/09/23 11:57:25;;;;;;;;;;;22.80;66.50;;;;;;4981576;28;19925;-76
2023/09/23 11:59:54;;;;;;;;;;;22.20;66.80;;;;;;4966150;28;20126;-77
2023/09/23 12:02:21;;;;;;;;;;;21.90;67.30;;;;;;4965025;28;20092;-75
2023/09/23 12:04:47;;;;;;;;;;;21.30;69.10;;;;;;4964413;29;19914;-76
2023/09/23 12:07:14;;;;;;;;;;;21.20;71.60;;;;;;4966063;28;20165;-77
2023/09/23 12:09:40;;;;;;;;;;;20.70;71.20;;;;;;4963507;29;19906;-75
2023/09/23 12:12:05;;;;;;;;;;;20.50;72.00;;;;;;4964837;29;19914;-76
2023/09/23 12:14:31;;;;;;;;;;;20.40;70.50;;;;;;4966065;29;19906;-78
2023/09/23 12:16:57;;;;;;;;;;;20.20;71.10;;;;;;4962973;29;20195;-77
2023/09/23 12:19:23;;;;;;;;;;;20.10;71.80;;;;;;4965151;29;20204;-78
2023/09/23 12:21:49;;;;;;;;;;;20.00;71.30;;;;;;4965774;28;19914;-74
2023/09/23 12:24:15;;;;;;;;;;;20.00;71.80;;;;;;4966150;29;19911;-75
2023/09/23 12:26:41;;;;;;;;;;;20.20;72.70;;;;;;4966248;28;19993;-77
2023/09/23 12:29:06;;;;;;;;;;;20.10;70.60;;;;;;4965845;29;19941;-77
2023/09/23 12:31:32;;;;;;;;;;;20.90;70.30;;;;;;4980600;28;19962;-76
2023/09/23 12:33:57;;;;;;;;;;;22.70;67.90;;;;;;4965040;28;19910;-77
2023/09/23 12:36:24;;;;;;;;;;;22.70;66.50;;;;;;4965157;28;19914;-76
2023/09/23 12:38:49;;;;;;;;;;;21.90;66.10;;;;;;4965147;28;20124;-77
2023/09/23 12:41:16;;;;;;;;;;;21.60;68.50;;;;;;4965942;29;19907;-76
2023/09/23 12:43:41;;;;;;;;;;;21.30;67.90;;;;;;4964466;29;19913;-77
2023/09/23 12:46:07;;;;;;;;;;;20.90;68.80;;;;;;4964801;28;20087;-77
2023/09/23 12:48:32;;;;;;;;;;;20.80;70.00;;;;;;4964302;29;19912;-76
2023/09/23 12:50:58;;;;;;;;;;;20.70;70.10;;;;;;4963046;28;19922;-77
2023/09/23 12:53:24;;;;;;;;;;;20.70;69.80;;;;;;4965063;29;19902;-77
2023/09/23 12:55:50;;;;;;;;;;;20.50;70.60;;;;;;4964986;29;19987;-75
2023/09/23 12:58:15;;;;;;;;;;;20.20;70.00;;;;;;4964682;29;20215;-75
2023/09/23 13:00:43;;;;;;;;;;;20.10;69.70;;;;;;4960681;29;19958;-76
2023/09/23 13:03:10;;;;;;;;;;;20.10;70.60;;;;;;4956387;29;20096;-76
2023/09/23 13:05:35;;;;;;;;;;;20.10;70.80;;;;;;4949942;29;19910;-76
2023/09/23 13:08:05;;;;;;;;;;;20.20;70.10;;;;;;4953030;29;19914;-75
2023/09/23 13:10:31;;;;;;;;;;;20.20;69.50;;;;;;4965260;28;19921;-75
2023/09/23 13:12:57;;;;;;;;;;;20.30;70.10;;;;;;4964308;29;19929;-76
2023/09/23 13:15:23;;;;;;;;;;;20.60;69.20;;;;;;4962185;29;19934;-76
2023/09/23 13:17:49;;;;;;;;;;;20.90;68.70;;;;;;4979802;28;19906;-76
2023/09/23 13:20:15;;;;;;;;;;;21.30;67.00;;;;;;4964202;29;19987;-76
2023/09/23 13:22:41;;;;;;;;;;;21.50;66.60;;;;;;4958287;29;19948;-76
2023/09/23 13:25:07;;;;;;;;;;;21.60;66.20;;;;;;4965171;29;20188;-75
2023/09/23 13:27:33;;;;;;;;;;;21.80;65.80;;;;;;4965117;29;20013;-77
2023/09/23 13:29:59;;;;;;;;;;;22.40;65.40;;;;;;4964192;29;19903;-76
2023/09/23 13:32:24;;;;;;;;;;;22.50;63.40;;;;;;4964321;29;19922;-77
2023/09/23 13:34:50;;;;;;;;;;;22.70;64.40;;;;;;4964580;29;19906;-76
2023/09/23 13:37:16;;;;;;;;;;;24.80;61.70;;;;;;4964971;29;20117;-77
2023/09/23 13:39:44;;;;;;;;;;;27.30;59.10;;;;;;4956758;29;19907;-77
2023/09/23 13:42:10;;;;;;;;;;;29.40;56.20;;;;;;4961198;29;20220;-78
2023/09/23 13:44:35;;;;;;;;;;;29.20;54.70;;;;;;4945582;29;19913;-76
2023/09/23 13:47:04;;;;;;;;;;;28.80;54.80;;;;;;4947116;29;19941;-75
2023/09/23 13:49:30;;;;;;;;;;;28.50;55.50;;;;;;4960461;29;19999;-76
2023/09/23 13:51:57;;;;;;;;;;;30.20;53.20;;;;;;4963618;29;20200;-76
2023/09/23 13:54:23;;;;;;;;;;;30.80;51.20;;;;;;4963302;29;19930;-75
2023/09/23 13:56:48;;;;;;;;;;;31.00;50.60;;;;;;4960807;28;19915;-76
2023/09/23 13:59:15;;;;;;;;;;;31.10;50.40;;;;;;4964462;29;19902;-76
2023/09/23 14:01:41;;;;;;;;;;;31.80;49.60;;;;;;4964078;29;19907;-76
2023/09/23 14:04:07;;;;;;;;;;;32.50;49.30;;;;;;4959936;29;19906;-76
2023/09/23 14:06:32;;;;;;;;;;;32.30;49.00;;;;;;4964585;28;20204;-76
2023/09/23 14:08:59;;;;;;;;;;;31.40;48.80;;;;;;4959980;29;19921;-77
2023/09/23 14:11:25;;;;;;;;;;;29.30;50.50;;;;;;4963795;29;20240;-77
2023/09/23 14:13:50;;;;;;;;;;;28.50;51.40;;;;;;4957991;29;19942;-77
2023/09/23 14:16:16;;;;;;;;;;;29.10;51.50;;;;;;4955773;29;19906;-75
2023/09/23 14:18:42;;;;;;;;;;;30.80;50.60;;;;;;4964143;28;19984;-76
2023/09/23 14:21:07;;;;;;;;;;;32.50;48.90;;;;;;4964333;29;19902;-77
2023/09/23 14:23:34;;;;;;;;;;;32.80;47.30;;;;;;4963642;29;20231;-76
2023/09/23 14:26:00;;;;;;;;;;;32.60;48.00;;;;;;4963928;28;19906;-76
2023/09/23 14:28:25;;;;;;;;;;;31.90;48.90;;;;;;4964022;29;19910;-77
2023/09/23 14:30:51;;;;;;;;;;;32.60;46.90;;;;;;4963113;29;19914;-76
2023/09/23 14:33:16;;;;;;;;;;;32.60;47.20;;;;;;4963474;29;19906;-76
2023/09/23 14:35:42;;;;;;;;;;;32.60;46.90;;;;;;4963591;29;19925;-75
2023/09/23 14:38:07;;;;;;;;;;;31.80;47.30;;;;;;4964022;29;19906;-75
2023/09/23 14:40:33;;;;;;;;;;;30.30;48.80;;;;;;4963943;29;19913;-75
2023/09/23 14:42:59;;;;;;;;;;;29.90;49.40;;;;;;4954103;29;19956;-76
2023/09/23 14:45:24;;;;;;;;;;;28.60;50.30;;;;;;4948192;29;19907;-76
2023/09/23 14:47:50;;;;;;;;;;;27.60;51.50;;;;;;4939206;29;19969;-76
2023/09/23 14:50:15;;;;;;;;;;;26.90;53.40;;;;;;4974176;28;19906;-75
2023/09/23 14:52:42;;;;;;;;;;;26.00;54.50;;;;;;4955113;29;20223;-77
2023/09/23 14:55:08;;;;;;;;;;;25.10;56.10;;;;;;4963524;28;19907;-76
2023/09/23 14:57:34;;;;;;;;;;;24.40;57.20;;;;;;4963294;28;19940;-77
2023/09/23 15:00:00;;;;;;;;;;;23.90;58.00;;;;;;4967197;28;19907;-77
2023/09/23 15:02:25;;;;;;;;;;;23.30;59.00;;;;;;4967409;29;20108;-78
2023/09/23 15:04:51;;;;;;;;;;;22.90;59.60;;;;;;4966451;29;19903;-77
2023/09/23 15:07:17;;;;;;;;;;;22.60;60.70;;;;;;4966401;28;19953;-78
2023/09/23 15:09:43;;;;;;;;;;;22.10;60.80;;;;;;4963474;29;20245;-77
2023/09/23 15:12:09;;;;;;;;;;;21.90;61.80;;;;;;4966958;28;19949;-77
2023/09/23 15:14:35;;;;;;;;;;;21.80;62.00;;;;;;4959439;29;19907;-78
2023/09/23 15:17:01;;;;;;;;;;;21.60;62.90;;;;;;4964030;29;19907;-77
2023/09/23 15:19:26;;;;;;;;;;;21.40;63.60;;;;;;4967522;29;19909;-76
2023/09/23 15:21:54;;;;;;;;;;;21.30;64.70;;;;;;4967157;29;19942;-78
2023/09/23 15:24:19;;;;;;;;;;;21.10;64.80;;;;;;4966018;29;19906;-79
2023/09/23 15:26:46;;;;;;;;;;;20.90;65.40;;;;;;4967413;28;19913;-78
2023/09/23 15:29:12;;;;;;;;;;;21.00;66.10;;;;;;4966978;29;19978;-78
2023/09/23 15:31:37;;;;;;;;;;;21.10;65.90;;;;;;4981554;28;19914;-76
2023/09/23 15:34:03;;;;;;;;;;;21.90;64.90;;;;;;4966096;28;19969;-76
2023/09/23 15:36:29;;;;;;;;;;;22.60;62.90;;;;;;4964070;28;19913;-78
2023/09/23 15:38:56;;;;;;;;;;;22.90;61.50;;;;;;4963575;29;19906;-75
2023/09/23 15:41:22;;;;;;;;;;;23.20;61.10;;;;;;4965635;29;19910;-76
2023/09/23 15:43:48;;;;;;;;;;;25.20;57.60;;;;;;4966549;28;19914;-76
2023/09/23 15:46:13;;;;;;;;;;;25.10;57.00;;;;;;4971504;29;19937;-76
2023/09/23 15:48:39;;;;;;;;;;;24.30;58.60;;;;;;4966154;29;19902;-76
2023/09/23 15:51:12;;;;;;;;;;;24.90;58.80;;;;;;4965106;29;19979;-76
2023/09/23 15:53:38;;;;;;;;;;;26.30;56.60;;;;;;4961693;28;19906;-75
2023/09/23 15:56:06;;;;;;;;;;;27.70;55.30;;;;;;4941559;29;20231;-76
2023/09/23 15:58:37;;;;;;;;;;;28.60;54.50;;;;;;4965625;29;20148;-76
2023/09/23 16:01:04;;;;;;;;;;;29.60;53.70;;;;;;4965689;28;20133;-75
2023/09/23 16:03:30;;;;;;;;;;;30.10;51.20;;;;;;4966585;29;20176;-76
2023/09/23 16:05:56;;;;;;;;;;;28.60;52.20;;;;;;4966128;28;19926;-75
2023/09/23 16:08:23;;;;;;;;;;;27.00;54.20;;;;;;4948772;29;19923;-76
2023/09/23 16:10:49;;;;;;;;;;;26.00;55.40;;;;;;4951962;29;19937;-77
2023/09/23 16:13:15;;;;;;;;;;;24.90;56.10;;;;;;4966580;29;20204;-76
2023/09/23 16:15:40;;;;;;;;;;;24.10;58.10;;;;;;4964442;29;19906;-75
2023/09/23 16:18:06;;;;;;;;;;;24.00;58.80;;;;;;4959775;29;19910;-76
2023/09/23 16:20:31;;;;;;;;;;;24.00;58.60;;;;;;4948431;29;19907;-75
2023/09/23 16:22:57;;;;;;;;;;;24.10;58.80;;;;;;4947948;29;20074;-75
2023/09/23 16:25:23;;;;;;;;;;;23.80;59.20;;;;;;4947924;29;19964;-74
2023/09/23 16:27:48;;;;;;;;;;;23.00;60.90;;;;;;4940969;29;19906;-73
2023/09/23 16:30:14;;;;;;;;;;;22.40;62.60;;;;;;4947938;29;19907;-74
2023/09/23 16:32:40;;;;;;;;;;;21.90;64.00;;;;;;4948006;29;19917;-74
2023/09/23 16:35:09;;;;;;;;;;;21.50;65.10;;;;;;4947452;29;19913;-77
2023/09/23 16:37:34;;;;;;;;;;;20.90;66.60;;;;;;4947559;29;19907;-76
2023/09/23 16:40:00;;;;;;;;;;;20.50;67.80;;;;;;4946319;29;19910;-76
2023/09/23 16:42:26;;;;;;;;;;;20.20;68.90;;;;;;4948018;29;19954;-76
2023/09/23 16:44:51;;;;;;;;;;;19.80;70.00;;;;;;4947496;29;19907;-77
2023/09/23 16:47:17;;;;;;;;;;;19.40;71.20;;;;;;4948112;29;20006;-76
2023/09/23 16:49:43;;;;;;;;;;;19.20;72.40;;;;;;4947602;29;19907;-77
2023/09/23 16:52:08;;;;;;;;;;;19.00;73.00;;;;;;4946996;29;19933;-78
2023/09/23 16:54:35;;;;;;;;;;;18.80;73.60;;;;;;4948035;29;19910;-77
2023/09/23 16:57:00;;;;;;;;;;;18.70;74.60;;;;;;4946717;29;19946;-77
2023/09/23 16:59:26;;;;;;;;;;;18.60;74.90;;;;;;4947310;29;19906;-78
2023/09/23 17:01:52;;;;;;;;;;;18.40;75.60;;;;;;4947047;29;19950;-77
2023/09/23 17:04:17;;;;;;;;;;;18.30;76.00;;;;;;4947213;29;19906;-79
2023/09/23 17:06:53;;;;;;;;;;;18.20;76.90;;;;;;4945969;29;20185;-80
2023/09/23 17:13:18;;;;;;;;;;;17.80;77.30;;;;;;4947031;29;19954;-79
2023/09/23 17:15:44;;;;;;;;;;;17.80;77.30;;;;;;4946109;29;19966;-80
2023/09/23 17:18:10;;;;;;;;;;;17.70;76.30;;;;;;4931293;28;20104;-79
2023/09/23 17:20:36;;;;;;;;;;;17.60;75.90;;;;;;4930463;29;19909;-77
2023/09/23 17:23:18;;;;;;;;;;;17.50;76.40;;;;;;4929195;29;19928;-79
2023/09/23 17:25:47;;;;;;;;;;;17.40;76.50;;;;;;4947071;29;20068;-79
2023/09/23 17:28:20;;;;;;;;;;;17.20;77.40;;;;;;4946395;29;19906;-81
2023/09/23 17:30:45;;;;;;;;;;;17.00;77.60;;;;;;4947358;29;19907;-80
2023/09/23 17:33:11;;;;;;;;;;;16.90;77.80;;;;;;4931388;29;20215;-80
2023/09/23 17:35:45;;;;;;;;;;;16.70;78.90;;;;;;4948049;29;19929;-81
2023/09/23 17:38:52;;;;;;;;;;;16.70;79.00;;;;;;4948489;29;19906;-81
2023/09/23 17:41:18;;;;;;;;;;;16.60;79.60;;;;;;4946619;29;19907;-79
2023/09/23 17:43:47;;;;;;;;;;;16.50;79.90;;;;;;4946463;29;19950;-80
2023/09/23 17:46:16;;;;;;;;;;;16.60;80.30;;;;;;4946058;29;19911;-80
2023/09/23 17:48:44;;;;;;;;;;;16.50;81.20;;;;;;4927672;29;19911;-81
2023/09/23 17:51:10;;;;;;;;;;;16.40;81.20;;;;;;4942747;29;20109;-80
2023/09/23 17:53:35;;;;;;;;;;;16.40;81.10;;;;;;4927637;29;19907;-80
2023/09/23 17:56:12;;;;;;;;;;;16.30;81.90;;;;;;4927787;29;19907;-81
2023/09/23 17:58:41;;;;;;;;;;;16.30;82.20;;;;;;4945495;29;19978;-81
2023/09/23 18:01:07;;;;;;;;;;;16.20;82.70;;;;;;4945082;29;20078;-82
2023/09/23 18:03:33;;;;;;;;;;;16.20;82.90;;;;;;4945553;29;19918;-80
2023/09/23 18:06:00;;;;;;;;;;;16.20;83.20;;;;;;4946250;29;19907;-79
2023/09/23 18:08:25;;;;;;;;;;;16.10;83.50;;;;;;4955734;29;19915;-79
2023/09/23 18:10:52;;;;;;;;;;;16.10;83.90;;;;;;4945428;29;19907;-79
2023/09/23 18:13:18;;;;;;;;;;;16.10;84.50;;;;;;4945964;29;19946;-79
2023/09/23 18:16:16;;;;;;;;;;;16.00;84.70;;;;;;4945441;29;19910;-79
2023/09/23 18:18:45;;;;;;;;;;;16.00;85.40;;;;;;4946524;29;19914;-80
2023/09/23 18:21:12;;;;;;;;;;;15.90;85.80;;;;;;4944647;29;19914;-79
2023/09/23 18:23:38;;;;;;;;;;;15.90;86.40;;;;;;4945590;29;19973;-78
2023/09/23 18:26:03;;;;;;;;;;;15.80;87.10;;;;;;4946217;29;19914;-79
2023/09/23 18:28:29;;;;;;;;;;;15.70;87.80;;;;;;4946400;29;19907;-80
2023/09/23 18:30:55;;;;;;;;;;;15.70;88.10;;;;;;4945146;29;19922;-78
2023/09/23 18:33:21;;;;;;;;;;;15.70;88.40;;;;;;4929431;29;20100;-82
2023/09/23 18:35:47;;;;;;;;;;;15.70;88.80;;;;;;4929513;29;19915;-79
2023/09/23 18:38:12;;;;;;;;;;;15.60;89.30;;;;;;4945635;29;19907;-78
2023/09/23 18:40:43;;;;;;;;;;;15.50;89.70;;;;;;4946157;29;19903;-79
2023/09/23 18:43:10;;;;;;;;;;;15.50;90.10;;;;;;4929005;29;19922;-81
2023/09/23 18:45:35;;;;;;;;;;;15.40;90.20;;;;;;4946269;29;19973;-80
2023/09/23 18:48:01;;;;;;;;;;;15.50;90.20;;;;;;4941146;29;20244;-81
2023/09/23 18:50:29;;;;;;;;;;;15.40;90.20;;;;;;4910084;29;20203;-79
2023/09/23 18:52:58;;;;;;;;;;;15.30;90.20;;;;;;4927077;29;20062;-81
2023/09/23 18:55:24;;;;;;;;;;;15.30;89.80;;;;;;4927095;29;19903;-81
2023/09/23 18:57:52;;;;;;;;;;;15.30;90.00;;;;;;4926972;29;19914;-82
2023/09/23 19:00:42;;;;;;;;;;;15.30;90.00;;;;;;4925494;29;20138;-81
2023/09/23 19:03:17;;;;;;;;;;;15.30;90.20;;;;;;4925594;29;20109;-81
2023/09/23 19:05:43;;;;;;;;;;;15.30;90.50;;;;;;4926109;29;19907;-81
2023/09/23 19:08:09;;;;;;;;;;;15.20;90.10;;;;;;4925217;29;19917;-82
2023/09/23 19:10:38;;;;;;;;;;;15.10;90.10;;;;;;4926842;29;19907;-78
2023/09/23 19:13:04;;;;;;;;;;;15.10;90.00;;;;;;4926763;29;19911;-80
2023/09/23 19:15:30;;;;;;;;;;;15.10;89.40;;;;;;4926874;29;19906;-81
2023/09/23 19:17:56;;;;;;;;;;;15.00;89.60;;;;;;4925555;29;19914;-81
2023/09/23 19:20:22;;;;;;;;;;;15.00;89.80;;;;;;4926332;29;19903;-80
2023/09/23 19:22:49;;;;;;;;;;;15.00;90.00;;;;;;4917327;29;19914;-79
2023/09/23 19:25:17;;;;;;;;;;;15.10;90.10;;;;;;4933407;29;19914;-80
2023/09/23 19:28:07;;;;;;;;;;;15.10;90.10;;;;;;4948651;29;19918;-81
2023/09/23 19:30:33;;;;;;;;;;;15.20;90.00;;;;;;4940080;29;20096;-80
2023/09/23 19:33:08;;;;;;;;;;;15.20;90.00;;;;;;4954140;29;19917;-80
2023/09/23 19:35:38;;;;;;;;;;;15.30;89.80;;;;;;4938323;28;20094;-80
2023/09/23 19:38:07;;;;;;;;;;;15.20;90.00;;;;;;4951534;29;19907;-81
2023/09/23 19:40:44;;;;;;;;;;;15.30;90.10;;;;;;4913286;29;20188;-81
2023/09/23 19:43:31;;;;;;;;;;;15.30;90.10;;;;;;4931638;29;19995;-80
2023/09/23 19:46:03;;;;;;;;;;;15.30;90.00;;;;;;4953613;29;20292;-79
2023/09/23 19:48:30;;;;;;;;;;;15.30;90.10;;;;;;4961143;28;19925;-80
2023/09/23 19:50:56;;;;;;;;;;;15.30;90.20;;;;;;4945659;29;19911;-80
2023/09/23 19:53:22;;;;;;;;;;;15.30;90.30;;;;;;4959720;29;19907;-80
2023/09/23 19:55:48;;;;;;;;;;;15.30;90.40;;;;;;4954092;29;19932;-80
2023/09/23 19:58:18;;;;;;;;;;;15.30;90.60;;;;;;4960242;29;19907;-80
2023/09/23 20:00:58;;;;;;;;;;;15.20;90.70;;;;;;4934494;29;19910;-81
2023/09/23 20:03:25;;;;;;;;;;;15.20;90.80;;;;;;4946974;29;20193;-81
2023/09/23 20:05:50;;;;;;;;;;;15.20;90.90;;;;;;4948487;29;19907;-80
2023/09/23 20:08:17;;;;;;;;;;;15.30;90.90;;;;;;4948035;29;19910;-80
2023/09/23 20:11:07;;;;;;;;;;;15.20;91.00;;;;;;4947485;29;19921;-80
2023/09/23 20:13:34;;;;;;;;;;;15.20;91.20;;;;;;4948584;29;19907;-80
2023/09/23 20:15:59;;;;;;;;;;;15.20;91.20;;;;;;4947654;29;19907;-79
2023/09/23 20:18:25;;;;;;;;;;;15.20;91.30;;;;;;4948248;29;19910;-81
2023/09/23 20:20:59;;;;;;;;;;;15.30;91.40;;;;;;4948185;29;20085;-80
2023/09/23 20:23:25;;;;;;;;;;;15.20;91.50;;;;;;4947794;29;19907;-80
2023/09/23 20:25:51;;;;;;;;;;;15.20;91.50;;;;;;4948078;29;20196;-80
2023/09/23 20:28:17;;;;;;;;;;;15.30;91.70;;;;;;4931019;29;19914;-80
2023/09/23 20:30:47;;;;;;;;;;;15.20;91.80;;;;;;4947276;29;19966;-80
2023/09/23 20:33:17;;;;;;;;;;;15.20;91.90;;;;;;4946366;29;19914;-80
2023/09/23 20:35:43;;;;;;;;;;;15.20;92.10;;;;;;4927748;29;19918;-81
2023/09/23 20:38:09;;;;;;;;;;;15.10;92.20;;;;;;4943657;29;19966;-79
2023/09/23 20:40:36;;;;;;;;;;;15.20;92.20;;;;;;4932873;29;19973;-80
2023/09/23 20:43:09;;;;;;;;;;;15.20;92.30;;;;;;4947018;29;19906;-81
2023/09/23 20:45:40;;;;;;;;;;;15.10;92.50;;;;;;4945514;29;19976;-81
2023/09/23 20:48:06;;;;;;;;;;;15.20;92.50;;;;;;4947482;29;19914;-80
2023/09/23 20:50:33;;;;;;;;;;;15.20;92.60;;;;;;4946704;29;19903;-79
2023/09/23 20:52:59;;;;;;;;;;;15.10;92.50;;;;;;4946629;29;19985;-80
2023/09/23 20:55:25;;;;;;;;;;;15.20;92.50;;;;;;4947503;29;19906;-79